sensor_id;sensor_type;location;lat;lon;timestamp;pressure;altitude;pressure_sealevel;temperature;humidity
61961;BME280;47923;42.506;24.192;2023-06-10T00:02:34;94370.31;;;9.23;93.25
61961;BME280;47923;42.506;24.192;2023-06-10T00:05:16;95154.78;;;14.12;92.54
61961;BME280;47923;42.506;24.192;2023-06-10T00:07:48;94816.66;;;12.25;92.54
61961;BME280;47923;42.506;24.192;2023-06-10T00:13:14;94414.31;;;9.34;92.59
61961;BME280;47923;42.506;24.192;2023-06-10T00:15:43;94744.19;;;11.72;93.48
61961;BME280;47923;42.506;24.192;2023-06-10T00:46:39;94382.63;;;8.69;95.89
61961;BME280;47923;42.506;24.192;2023-06-10T00:49:10;94715.16;;;10.78;96.01
61961;BME280;47923;42.506;24.192;2023-06-10T00:51:55;95133.31;;;13.32;97.85
61961;BME280;47923;42.506;24.192;2023-06-10T00:57:41;94807.94;;;11.62;96.60
61961;BME280;47923;42.506;24.192;2023-06-10T01:03:22;94705.22;;;10.90;96.34
61961;BME280;47923;42.506;24.192;2023-06-10T01:05:55;94335.22;;;8.20;95.37
61961;BME280;47923;42.506;24.192;2023-06-10T01:09:32;95081.03;;;13.49;96.01
61961;BME280;47923;42.506;24.192;2023-06-10T01:11:40;94991.31;;;12.67;96.37
61961;BME280;47923;42.506;24.192;2023-06-10T01:14:14;94772.38;;;11.60;96.85
61961;BME280;47923;42.506;24.192;2023-06-10T01:16:41;95130.69;;;13.71;97.14
61961;BME280;47923;42.506;24.192;2023-06-10T01:22:05;94327.16;;;8.61;94.54
61961;BME280;47923;42.506;24.192;2023-06-10T01:38:31;94347.13;;;9.07;93.34
61961;BME280;47923;42.506;24.192;2023-06-10T01:41:04;95080.66;;;14.15;92.98
61961;BME280;47923;42.506;24.192;2023-06-10T01:43:33;94616.88;;;11.12;93.73
61961;BME280;47923;42.506;24.192;2023-06-10T01:46:17;94489.53;;;10.15;92.92
61961;BME280;47923;42.506;24.192;2023-06-10T01:49:02;95127.63;;;14.22;93.30
61961;BME280;47923;42.506;24.192;2023-06-10T01:51:30;94681.47;;;11.45;92.63
61961;BME280;47923;42.506;24.192;2023-06-10T01:53:56;94375.06;;;9.47;92.57
61961;BME280;47923;42.506;24.192;2023-06-10T01:56:26;94379.31;;;9.41;93.27
61961;BME280;47923;42.506;24.192;2023-06-10T01:59:00;94282.00;;;8.91;93.26
61961;BME280;47923;42.506;24.192;2023-06-10T02:01:26;94785.34;;;12.31;93.61
61961;BME280;47923;42.506;24.192;2023-06-10T02:09:11;94376.72;;;9.66;93.32
61961;BME280;47923;42.506;24.192;2023-06-10T02:11:48;94786.91;;;12.43;92.38
61961;BME280;47923;42.506;24.192;2023-06-10T02:14:43;94287.94;;;9.18;92.18
61961;BME280;47923;42.506;24.192;2023-06-10T02:17:17;94785.75;;;12.51;91.20
61961;BME280;47923;42.506;24.192;2023-06-10T02:19:43;94780.72;;;12.53;92.20
61961;BME280;47923;42.506;24.192;2023-06-10T02:22:09;94792.34;;;12.64;92.70
61961;BME280;47923;42.506;24.192;2023-06-10T02:24:36;94549.28;;;11.08;92.41
61961;BME280;47923;42.506;24.192;2023-06-10T02:27:04;94349.03;;;9.76;92.66
61961;BME280;47923;42.506;24.192;2023-06-10T02:29:38;95070.94;;;14.17;93.82
61961;BME280;47923;42.506;24.192;2023-06-10T02:35:36;94318.16;;;9.59;91.66
61961;BME280;47923;42.506;24.192;2023-06-10T02:38:12;95055.38;;;14.53;92.58
61961;BME280;47923;42.506;24.192;2023-06-10T02:41:13;94410.00;;;9.98;91.92
61961;BME280;47923;42.506;24.192;2023-06-10T02:44:13;94867.09;;;13.37;92.00
61961;BME280;47923;42.506;24.192;2023-06-10T02:46:52;94293.31;;;9.22;92.18
61961;BME280;47923;42.506;24.192;2023-06-10T02:49:21;94886.84;;;13.37;91.97
61961;BME280;47923;42.506;24.192;2023-06-10T02:51:47;95101.97;;;14.62;92.88
61961;BME280;47923;42.506;24.192;2023-06-10T02:54:20;95004.22;;;14.20;92.00
61961;BME280;47923;42.506;24.192;2023-06-10T02:57:11;94745.50;;;12.64;92.38
61961;BME280;47923;42.506;24.192;2023-06-10T02:59:57;95058.06;;;14.68;92.89
61961;BME280;47923;42.506;24.192;2023-06-10T03:02:28;95106.63;;;14.65;92.70
61961;BME280;47923;42.506;24.192;2023-06-10T03:05:15;94919.75;;;13.64;92.02
61961;BME280;47923;42.506;24.192;2023-06-10T03:10:36;94884.47;;;13.07;92.09
61961;BME280;47923;42.506;24.192;2023-06-10T03:13:18;94328.72;;;10.00;92.25
61961;BME280;47923;42.506;24.192;2023-06-10T03:16:09;94857.75;;;13.13;91.46
61961;BME280;47923;42.506;24.192;2023-06-10T03:19:03;94377.03;;;10.37;90.98
61961;BME280;47923;42.506;24.192;2023-06-10T03:22:13;94781.06;;;13.12;91.00
61961;BME280;47923;42.506;24.192;2023-06-10T03:24:39;94355.31;;;10.09;90.98
61961;BME280;47923;42.506;24.192;2023-06-10T03:27:09;94606.59;;;11.88;90.70
61961;BME280;47923;42.506;24.192;2023-06-10T03:29:37;94299.78;;;9.93;89.90
61961;BME280;47923;42.506;24.192;2023-06-10T03:32:05;94355.69;;;10.00;90.17
61961;BME280;47923;42.506;24.192;2023-06-10T03:34:31;94748.94;;;13.00;89.83
61961;BME280;47923;42.506;24.192;2023-06-10T03:36:57;94792.66;;;13.38;90.04
61961;BME280;47923;42.506;24.192;2023-06-10T03:39:23;94618.19;;;12.25;89.89
61961;BME280;47923;42.506;24.192;2023-06-10T03:41:50;94779.50;;;13.22;90.78
61961;BME280;47923;42.506;24.192;2023-06-10T03:44:16;94763.63;;;13.10;91.62
61961;BME280;47923;42.506;24.192;2023-06-10T03:49:18;94608.53;;;12.20;91.54
61961;BME280;47923;42.506;24.192;2023-06-10T03:51:50;94343.09;;;10.54;90.84
61961;BME280;47923;42.506;24.192;2023-06-10T03:54:18;94341.16;;;10.37;90.93
61961;BME280;47923;42.506;24.192;2023-06-10T03:59:31;95077.47;;;15.57;90.09
61961;BME280;47923;42.506;24.192;2023-06-10T04:02:16;94825.09;;;13.77;88.21
61961;BME280;47923;42.506;24.192;2023-06-10T04:05:15;94771.59;;;13.77;87.66
61961;BME280;47923;42.506;24.192;2023-06-10T04:07:42;94319.97;;;10.82;87.54
61961;BME280;47923;42.506;24.192;2023-06-10T04:10:22;95118.16;;;15.79;88.09
61961;BME280;47923;42.506;24.192;2023-06-10T04:19:16;94402.97;;;11.24;86.48
61961;BME280;47923;42.506;24.192;2023-06-10T04:25:09;94406.00;;;11.51;85.96
61961;BME280;47923;42.506;24.192;2023-06-10T04:27:43;94820.50;;;14.51;86.30
61961;BME280;47923;42.506;24.192;2023-06-10T04:33:24;95040.47;;;16.12;86.13
61961;BME280;47923;42.506;24.192;2023-06-10T04:35:50;94367.69;;;11.74;85.67
61961;BME280;47923;42.506;24.192;2023-06-10T04:38:16;94530.56;;;12.81;84.86
61961;BME280;47923;42.506;24.192;2023-06-10T04:40:42;94602.56;;;12.89;84.34
61961;BME280;47923;42.506;24.192;2023-06-10T04:43:08;94342.19;;;11.68;83.76
61961;BME280;47923;42.506;24.192;2023-06-10T04:45:34;94842.41;;;14.85;84.49
61961;BME280;47923;42.506;24.192;2023-06-10T04:48:00;94300.19;;;11.42;83.78
61961;BME280;47923;42.506;24.192;2023-06-10T04:50:26;94844.63;;;14.97;83.98
61961;BME280;47923;42.506;24.192;2023-06-10T04:52:52;95013.00;;;15.92;84.40
61961;BME280;47923;42.506;24.192;2023-06-10T04:55:18;94796.69;;;14.69;83.82
61961;BME280;47923;42.506;24.192;2023-06-10T04:57:44;94380.00;;;12.03;83.43
61961;BME280;47923;42.506;24.192;2023-06-10T05:02:45;94654.75;;;14.47;81.14
61961;BME280;47923;42.506;24.192;2023-06-10T05:05:17;94916.47;;;15.93;81.18
61961;BME280;47923;42.506;24.192;2023-06-10T05:07:43;95140.59;;;17.55;80.20
61961;BME280;47923;42.506;24.192;2023-06-10T05:10:09;94838.06;;;15.77;80.16
61961;BME280;47923;42.506;24.192;2023-06-10T05:12:40;94395.81;;;12.85;79.52
61961;BME280;47923;42.506;24.192;2023-06-10T05:15:13;94895.69;;;16.10;80.72
61961;BME280;47923;42.506;24.192;2023-06-10T05:17:40;94858.00;;;16.01;79.45
61961;BME280;47923;42.506;24.192;2023-06-10T05:20:24;94408.38;;;13.13;79.25
61961;BME280;47923;42.506;24.192;2023-06-10T05:22:57;95120.72;;;17.85;78.29
61961;BME280;47923;42.506;24.192;2023-06-10T05:25:30;95116.72;;;17.89;78.64
61961;BME280;47923;42.506;24.192;2023-06-10T05:28:03;94418.53;;;13.02;77.93
61961;BME280;47923;42.506;24.192;2023-06-10T05:31:00;94406.06;;;13.12;77.22
61961;BME280;47923;42.506;24.192;2023-06-10T05:52:57;94721.91;;;16.21;75.96
61961;BME280;47923;42.506;24.192;2023-06-10T05:58:02;94411.03;;;14.37;74.05
61961;BME280;47923;42.506;24.192;2023-06-10T06:00:27;94591.19;;;15.67;72.82
61961;BME280;47923;42.506;24.192;2023-06-10T06:02:54;94894.00;;;18.21;71.01
61961;BME280;47923;42.506;24.192;2023-06-10T06:05:32;94693.66;;;17.48;68.86
61961;BME280;47923;42.506;24.192;2023-06-10T06:08:16;94536.72;;;17.36;66.94
61961;BME280;47923;42.506;24.192;2023-06-10T06:10:45;95099.63;;;21.98;63.35
61961;BME280;47923;42.506;24.192;2023-06-10T06:13:13;94497.25;;;18.64;59.88
61961;BME280;47923;42.506;24.192;2023-06-10T06:15:39;95104.88;;;24.77;54.86
61961;BME280;47923;42.506;24.192;2023-06-10T06:18:05;94587.84;;;22.73;48.93
61961;BME280;47923;42.506;24.192;2023-06-10T06:20:31;94458.44;;;23.85;43.94
61961;BME280;47923;42.506;24.192;2023-06-10T06:22:58;94570.97;;;25.24;40.50
61961;BME280;47923;42.506;24.192;2023-06-10T06:25:24;94732.94;;;28.10;37.85
61961;BME280;47923;42.506;24.192;2023-06-10T06:27:50;94553.38;;;30.25;32.52
61961;BME280;47923;42.506;24.192;2023-06-10T06:30:16;95102.13;;;35.71;28.85
61961;BME280;47923;42.506;24.192;2023-06-10T06:32:47;94740.06;;;34.96;25.30
61961;BME280;47923;42.506;24.192;2023-06-10T06:35:33;94914.13;;;34.53;26.76
61961;BME280;47923;42.506;24.192;2023-06-10T06:38:00;95073.44;;;34.24;28.18
61961;BME280;47923;42.506;24.192;2023-06-10T06:40:35;94451.41;;;29.49;28.84
61961;BME280;47923;42.506;24.192;2023-06-10T06:43:30;94451.28;;;28.65;30.36
61961;BME280;47923;42.506;24.192;2023-06-10T06:46:09;95081.28;;;31.82;32.19
61961;BME280;47923;42.506;24.192;2023-06-10T06:48:35;95069.25;;;30.66;34.09
61961;BME280;47923;42.506;24.192;2023-06-10T06:51:00;95081.50;;;29.48;36.05
61961;BME280;47923;42.506;24.192;2023-06-10T06:53:30;94674.09;;;26.13;38.73
61961;BME280;47923;42.506;24.192;2023-06-10T06:56:19;95067.38;;;27.94;39.11
61961;BME280;47923;42.506;24.192;2023-06-10T06:58:46;94849.63;;;25.83;40.33
61961;BME280;47923;42.506;24.192;2023-06-10T07:01:12;94643.66;;;23.92;41.39
61961;BME280;47923;42.506;24.192;2023-06-10T07:03:38;94708.06;;;24.74;41.19
61961;BME280;47923;42.506;24.192;2023-06-10T07:06:04;94814.59;;;25.32;41.22
61961;BME280;47923;42.506;24.192;2023-06-10T07:08:31;95122.03;;;26.81;43.07
61961;BME280;47923;42.506;24.192;2023-06-10T07:10:57;95063.81;;;26.66;43.83
61961;BME280;47923;42.506;24.192;2023-06-10T07:13:22;95047.81;;;25.71;44.82
61961;BME280;47923;42.506;24.192;2023-06-10T07:15:48;94999.72;;;24.90;45.62
61961;BME280;47923;42.506;24.192;2023-06-10T07:18:15;95086.47;;;25.20;46.66
61961;BME280;47923;42.506;24.192;2023-06-10T07:20:41;94615.00;;;22.03;47.38
61961;BME280;47923;42.506;24.192;2023-06-10T07:23:07;94975.47;;;24.02;47.47
61961;BME280;47923;42.506;24.192;2023-06-10T07:25:32;95091.06;;;24.77;47.85
61961;BME280;47923;42.506;24.192;2023-06-10T07:27:58;95089.38;;;24.70;47.48
61961;BME280;47923;42.506;24.192;2023-06-10T07:30:24;95073.69;;;24.49;48.44
61961;BME280;47923;42.506;24.192;2023-06-10T07:32:49;94978.44;;;23.67;49.11
61961;BME280;47923;42.506;24.192;2023-06-10T07:35:19;94654.19;;;21.54;48.99
61961;BME280;47923;42.506;24.192;2023-06-10T07:37:45;94888.75;;;23.13;48.96
61961;BME280;47923;42.506;24.192;2023-06-10T07:40:10;94648.13;;;21.37;49.99
61961;BME280;47923;42.506;24.192;2023-06-10T07:42:36;94875.97;;;22.88;50.58
61961;BME280;47923;42.506;24.192;2023-06-10T07:45:05;95084.31;;;24.10;50.93
61961;BME280;47923;42.506;24.192;2023-06-10T07:47:33;95003.53;;;23.60;50.73
61961;BME280;47923;42.506;24.192;2023-06-10T07:49:59;95120.75;;;24.36;49.51
61961;BME280;47923;42.506;24.192;2023-06-10T07:52:25;94843.63;;;22.80;49.54
61961;BME280;47923;42.506;24.192;2023-06-10T07:54:51;95082.78;;;24.68;49.44
61961;BME280;47923;42.506;24.192;2023-06-10T07:57:18;95062.19;;;24.50;48.11
61961;BME280;47923;42.506;24.192;2023-06-10T07:59:45;94985.75;;;24.20;48.77
61961;BME280;47923;42.506;24.192;2023-06-10T08:02:10;95087.53;;;25.04;47.46
61961;BME280;47923;42.506;24.192;2023-06-10T08:04:36;94768.34;;;23.14;47.83
61961;BME280;47923;42.506;24.192;2023-06-10T08:07:02;95000.50;;;24.44;46.89
61961;BME280;47923;42.506;24.192;2023-06-10T08:09:28;94613.19;;;22.00;47.59
61961;BME280;47923;42.506;24.192;2023-06-10T08:11:54;95121.16;;;25.39;47.22
61961;BME280;47923;42.506;24.192;2023-06-10T08:14:21;95076.97;;;25.81;46.54
61961;BME280;47923;42.506;24.192;2023-06-10T08:16:47;94987.44;;;25.60;45.61
61961;BME280;47923;42.506;24.192;2023-06-10T08:19:13;95083.16;;;26.42;44.51
61961;BME280;47923;42.506;24.192;2023-06-10T08:21:39;95102.34;;;26.22;45.15
61961;BME280;47923;42.506;24.192;2023-06-10T08:24:09;94588.81;;;22.97;45.53
61961;BME280;47923;42.506;24.192;2023-06-10T08:26:35;95082.16;;;26.31;45.36
61961;BME280;47923;42.506;24.192;2023-06-10T08:29:00;95087.38;;;26.29;44.51
61961;BME280;47923;42.506;24.192;2023-06-10T08:31:26;95087.78;;;26.46;44.21
61961;BME280;47923;42.506;24.192;2023-06-10T08:33:52;95039.81;;;25.73;45.36
61961;BME280;47923;42.506;24.192;2023-06-10T08:36:18;94810.09;;;23.80;45.45
61961;BME280;47923;42.506;24.192;2023-06-10T08:38:43;94991.00;;;24.64;46.93
61961;BME280;47923;42.506;24.192;2023-06-10T08:41:09;95094.28;;;25.30;47.18
61961;BME280;47923;42.506;24.192;2023-06-10T08:43:45;94989.78;;;24.83;46.78
61961;BME280;47923;42.506;24.192;2023-06-10T08:46:12;95090.72;;;25.48;46.81
61961;BME280;47923;42.506;24.192;2023-06-10T08:48:42;95093.06;;;25.04;48.46
61961;BME280;47923;42.506;24.192;2023-06-10T08:51:10;95084.00;;;25.31;48.89
61961;BME280;47923;42.506;24.192;2023-06-10T08:53:38;94892.66;;;24.30;48.25
61961;BME280;47923;42.506;24.192;2023-06-10T08:56:06;95081.53;;;25.24;48.80
61961;BME280;47923;42.506;24.192;2023-06-10T08:58:33;95086.16;;;24.90;49.78
61961;BME280;47923;42.506;24.192;2023-06-10T09:01:00;94820.97;;;23.07;51.22
61961;BME280;47923;42.506;24.192;2023-06-10T09:03:27;95080.94;;;24.83;51.10
61961;BME280;47923;42.506;24.192;2023-06-10T09:05:54;94609.03;;;21.64;50.05
61961;BME280;47923;42.506;24.192;2023-06-10T09:08:22;95075.09;;;25.18;49.87
61961;BME280;47923;42.506;24.192;2023-06-10T09:10:48;95082.47;;;24.84;50.89
61961;BME280;47923;42.506;24.192;2023-06-10T09:13:14;95079.06;;;24.80;50.73
61961;BME280;47923;42.506;24.192;2023-06-10T09:15:41;94986.25;;;23.69;50.46
61961;BME280;47923;42.506;24.192;2023-06-10T09:18:07;95093.78;;;24.40;50.54
61961;BME280;47923;42.506;24.192;2023-06-10T09:20:32;95074.63;;;24.46;51.29
61961;BME280;47923;42.506;24.192;2023-06-10T09:22:59;94712.69;;;22.07;50.30
61961;BME280;47923;42.506;24.192;2023-06-10T09:25:38;95057.56;;;24.38;50.52
61961;BME280;47923;42.506;24.192;2023-06-10T09:28:04;95073.25;;;24.69;49.72
61961;BME280;47923;42.506;24.192;2023-06-10T09:30:34;95086.78;;;25.13;49.07
61961;BME280;47923;42.506;24.192;2023-06-10T09:33:01;95071.28;;;25.06;48.84
61961;BME280;47923;42.506;24.192;2023-06-10T09:35:29;95092.91;;;24.98;49.50
61961;BME280;47923;42.506;24.192;2023-06-10T09:37:56;94760.34;;;22.57;50.55
61961;BME280;47923;42.506;24.192;2023-06-10T09:40:23;94680.56;;;21.51;51.91
61961;BME280;47923;42.506;24.192;2023-06-10T09:42:59;94671.13;;;21.31;52.59
61961;BME280;47923;42.506;24.192;2023-06-10T09:45:32;95065.88;;;24.47;52.18
61961;BME280;47923;42.506;24.192;2023-06-10T09:47:58;94970.97;;;23.86;50.72
61961;BME280;47923;42.506;24.192;2023-06-10T09:50:23;95063.75;;;24.70;50.37
61961;BME280;47923;42.506;24.192;2023-06-10T09:52:50;95065.28;;;24.98;49.84
61961;BME280;47923;42.506;24.192;2023-06-10T09:55:16;95065.44;;;24.76;49.66
61961;BME280;47923;42.506;24.192;2023-06-10T09:57:42;95066.47;;;24.51;48.95
61961;BME280;47923;42.506;24.192;2023-06-10T10:00:13;95069.56;;;24.53;50.74
61961;BME280;47923;42.506;24.192;2023-06-10T10:02:47;94996.81;;;24.38;49.67
61961;BME280;47923;42.506;24.192;2023-06-10T10:05:18;95077.22;;;26.02;47.14
61961;BME280;47923;42.506;24.192;2023-06-10T10:07:44;95056.78;;;26.56;45.47
61961;BME280;47923;42.506;24.192;2023-06-10T10:10:10;95054.28;;;27.50;43.49
61961;BME280;47923;42.506;24.192;2023-06-10T10:12:38;94748.97;;;25.18;42.94
61961;BME280;47923;42.506;24.192;2023-06-10T10:15:06;94774.81;;;25.77;43.07
61961;BME280;47923;42.506;24.192;2023-06-10T10:17:34;95059.31;;;28.11;41.08
61961;BME280;47923;42.506;24.192;2023-06-10T10:20:04;95049.09;;;28.78;39.84
61961;BME280;47923;42.506;24.192;2023-06-10T10:22:39;95017.16;;;29.98;37.59
61961;BME280;47923;42.506;24.192;2023-06-10T10:25:15;95050.53;;;31.77;33.22
61961;BME280;47923;42.506;24.192;2023-06-10T10:27:52;94814.53;;;30.52;32.03
61961;BME280;47923;42.506;24.192;2023-06-10T10:30:21;94756.19;;;30.10;32.92
61961;BME280;47923;42.506;24.192;2023-06-10T10:35:33;94809.66;;;30.14;31.35
61961;BME280;47923;42.506;24.192;2023-06-10T10:37:59;94407.38;;;26.78;32.96
61961;BME280;47923;42.506;24.192;2023-06-10T10:40:26;94739.91;;;28.89;34.99
61961;BME280;47923;42.506;24.192;2023-06-10T10:42:56;95023.09;;;31.25;31.16
61961;BME280;47923;42.506;24.192;2023-06-10T10:45:22;94831.47;;;28.41;32.19
61961;BME280;47923;42.506;24.192;2023-06-10T10:47:52;95020.63;;;28.63;35.80
61961;BME280;47923;42.506;24.192;2023-06-10T10:50:20;94538.06;;;24.73;38.62
61961;BME280;47923;42.506;24.192;2023-06-10T10:52:59;94745.88;;;26.02;38.45
61961;BME280;47923;42.506;24.192;2023-06-10T10:55:26;94667.09;;;25.59;38.21
61961;BME280;47923;42.506;24.192;2023-06-10T10:57:58;95016.75;;;28.20;38.40
61961;BME280;47923;42.506;24.192;2023-06-10T11:02:53;95013.31;;;29.06;36.22
61961;BME280;47923;42.506;24.192;2023-06-10T11:05:32;94889.25;;;27.61;35.28
61961;BME280;47923;42.506;24.192;2023-06-10T11:08:01;94291.22;;;23.25;37.34
61961;BME280;47923;42.506;24.192;2023-06-10T11:10:34;95006.03;;;27.92;38.86
61961;BME280;47923;42.506;24.192;2023-06-10T11:13:00;94560.28;;;24.78;38.69
61961;BME280;47923;42.506;24.192;2023-06-10T11:15:30;94714.69;;;25.24;38.29
61961;BME280;47923;42.506;24.192;2023-06-10T11:26:16;94988.78;;;26.31;41.63
61961;BME280;47923;42.506;24.192;2023-06-10T11:29:04;94633.59;;;23.80;41.46
61961;BME280;47923;42.506;24.192;2023-06-10T11:31:52;94985.53;;;26.57;40.65
61961;BME280;47923;42.506;24.192;2023-06-10T11:34:23;94967.50;;;26.61;41.15
61961;BME280;47923;42.506;24.192;2023-06-10T11:36:51;94965.81;;;26.40;41.66
61961;BME280;47923;42.506;24.192;2023-06-10T11:39:17;94690.41;;;24.47;40.61
61961;BME280;47923;42.506;24.192;2023-06-10T11:41:43;94955.09;;;26.86;39.79
61961;BME280;47923;42.506;24.192;2023-06-10T11:44:11;94955.47;;;26.79;39.87
61961;BME280;47923;42.506;24.192;2023-06-10T11:46:37;94515.06;;;23.62;39.68
61961;BME280;47923;42.506;24.192;2023-06-10T11:49:03;94955.50;;;26.16;40.97
61961;BME280;47923;42.506;24.192;2023-06-10T11:51:33;94737.50;;;25.10;40.57
61961;BME280;47923;42.506;24.192;2023-06-10T11:53:59;94624.19;;;23.96;40.64
61961;BME280;47923;42.506;24.192;2023-06-10T11:56:30;94671.50;;;25.12;39.18
61961;BME280;47923;42.506;24.192;2023-06-10T11:59:03;94668.72;;;25.12;37.93
61961;BME280;47923;42.506;24.192;2023-06-10T12:01:31;94948.97;;;27.56;37.91
61961;BME280;47923;42.506;24.192;2023-06-10T12:04:02;94952.78;;;27.73;37.26
61961;BME280;47923;42.506;24.192;2023-06-10T12:06:47;94693.50;;;25.45;37.94
61961;BME280;47923;42.506;24.192;2023-06-10T12:11:59;94656.44;;;25.13;37.41
61961;BME280;47923;42.506;24.192;2023-06-10T12:14:51;94945.53;;;27.32;37.02
61961;BME280;47923;42.506;24.192;2023-06-10T12:19:58;94834.38;;;27.50;36.81
61961;BME280;47923;42.506;24.192;2023-06-10T12:22:24;94922.50;;;28.11;34.65
61961;BME280;47923;42.506;24.192;2023-06-10T12:25:01;94898.53;;;27.72;34.30
61961;BME280;47923;42.506;24.192;2023-06-10T12:27:32;94804.28;;;27.43;34.21
61961;BME280;47923;42.506;24.192;2023-06-10T12:30:00;94932.38;;;28.32;34.27
61961;BME280;47923;42.506;24.192;2023-06-10T12:32:43;94921.13;;;28.21;35.21
61961;BME280;47923;42.506;24.192;2023-06-10T12:35:10;94619.63;;;26.05;36.22
61961;BME280;47923;42.506;24.192;2023-06-10T12:37:38;94826.84;;;27.50;34.45
61961;BME280;47923;42.506;24.192;2023-06-10T12:40:05;94925.16;;;28.40;35.70
61961;BME280;47923;42.506;24.192;2023-06-10T12:42:35;94699.00;;;26.13;37.41
61961;BME280;47923;42.506;24.192;2023-06-10T12:45:02;94529.50;;;25.39;37.70
61961;BME280;47923;42.506;24.192;2023-06-10T12:47:33;94704.31;;;26.76;38.16
61961;BME280;47923;42.506;24.192;2023-06-10T12:50:01;94554.09;;;25.37;39.25
61961;BME280;47923;42.506;24.192;2023-06-10T12:52:29;94563.16;;;25.67;38.59
61961;BME280;47923;42.506;24.192;2023-06-10T12:54:56;94918.47;;;27.91;38.19
61961;BME280;47923;42.506;24.192;2023-06-10T12:57:22;94899.09;;;27.76;38.51
61961;BME280;47923;42.506;24.192;2023-06-10T12:59:48;94922.88;;;27.83;38.42
61961;BME280;47923;42.506;24.192;2023-06-10T13:02:25;94916.31;;;27.66;39.34
61961;BME280;47923;42.506;24.192;2023-06-10T13:04:51;94663.03;;;25.99;39.28
61961;BME280;47923;42.506;24.192;2023-06-10T13:07:17;94916.59;;;27.33;41.48
61961;BME280;47923;42.506;24.192;2023-06-10T13:09:43;94903.19;;;27.02;41.78
61961;BME280;47923;42.506;24.192;2023-06-10T13:12:09;94566.22;;;24.38;42.15
61961;BME280;47923;42.506;24.192;2023-06-10T13:14:36;94653.03;;;25.33;41.37
61961;BME280;47923;42.506;24.192;2023-06-10T13:17:03;94923.00;;;27.09;42.76
61961;BME280;47923;42.506;24.192;2023-06-10T13:19:31;94724.22;;;25.62;44.41
61961;BME280;47923;42.506;24.192;2023-06-10T13:21:57;94708.16;;;25.37;45.70
61961;BME280;47923;42.506;24.192;2023-06-10T13:24:22;94888.59;;;26.71;45.97
61961;BME280;47923;42.506;24.192;2023-06-10T13:26:48;94907.63;;;27.08;45.50
61961;BME280;47923;42.506;24.192;2023-06-10T13:29:14;94711.22;;;26.07;45.29
61961;BME280;47923;42.506;24.192;2023-06-10T13:31:40;94821.50;;;26.97;43.28
61961;BME280;47923;42.506;24.192;2023-06-10T13:34:09;94905.53;;;27.68;42.90
61961;BME280;47923;42.506;24.192;2023-06-10T13:36:34;94899.72;;;27.86;40.75
61961;BME280;47923;42.506;24.192;2023-06-10T13:39:01;94818.47;;;26.51;38.32
61961;BME280;47923;42.506;24.192;2023-06-10T13:41:26;94538.81;;;24.25;38.33
61961;BME280;47923;42.506;24.192;2023-06-10T13:43:54;94874.31;;;25.96;38.80
61961;BME280;47923;42.506;24.192;2023-06-10T13:46:20;94842.03;;;25.93;38.34
61961;BME280;47923;42.506;24.192;2023-06-10T13:48:47;94883.72;;;26.28;38.22
61961;BME280;47923;42.506;24.192;2023-06-10T13:51:12;94886.75;;;26.39;37.93
61961;BME280;47923;42.506;24.192;2023-06-10T13:53:38;94908.91;;;26.39;38.17
61961;BME280;47923;42.506;24.192;2023-06-10T13:56:04;94920.19;;;26.26;37.94
61961;BME280;47923;42.506;24.192;2023-06-10T13:58:29;94675.16;;;24.61;38.54
61961;BME280;47923;42.506;24.192;2023-06-10T14:00:55;94866.22;;;25.59;39.29
61961;BME280;47923;42.506;24.192;2023-06-10T14:03:21;94900.84;;;26.02;39.57
61961;BME280;47923;42.506;24.192;2023-06-10T14:05:46;94910.28;;;25.96;39.95
61961;BME280;47923;42.506;24.192;2023-06-10T14:08:12;94718.34;;;24.73;38.86
61961;BME280;47923;42.506;24.192;2023-06-10T14:10:38;94187.97;;;21.42;38.68
61961;BME280;47923;42.506;24.192;2023-06-10T14:13:04;94624.34;;;24.35;38.61
61961;BME280;47923;42.506;24.192;2023-06-10T14:15:30;94840.00;;;25.78;38.66
61961;BME280;47923;42.506;24.192;2023-06-10T14:17:56;94886.81;;;26.06;37.64
61961;BME280;47923;42.506;24.192;2023-06-10T14:20:21;94576.09;;;23.18;41.06
61961;BME280;47923;42.506;24.192;2023-06-10T14:22:47;94922.25;;;24.84;44.43
61961;BME280;47923;42.506;24.192;2023-06-10T14:25:13;94614.72;;;22.01;47.21
61961;BME280;47923;42.506;24.192;2023-06-10T14:27:38;94691.03;;;21.44;48.39
61961;BME280;47923;42.506;24.192;2023-06-10T14:30:04;94889.16;;;22.06;49.18
61961;BME280;47923;42.506;24.192;2023-06-10T14:32:30;94580.06;;;20.03;50.74
61961;BME280;47923;42.506;24.192;2023-06-10T14:34:56;94802.13;;;21.08;52.11
61961;BME280;47923;42.506;24.192;2023-06-10T14:37:21;94945.22;;;21.74;53.58
61961;BME280;47923;42.506;24.192;2023-06-10T14:39:47;94947.19;;;21.86;54.31
61961;BME280;47923;42.506;24.192;2023-06-10T14:42:12;94859.28;;;21.61;56.46
61961;BME280;47923;42.506;24.192;2023-06-10T14:44:38;94906.06;;;21.83;60.60
61961;BME280;47923;42.506;24.192;2023-06-10T14:47:04;94598.28;;;19.71;62.96
61961;BME280;47923;42.506;24.192;2023-06-10T14:49:30;94949.19;;;21.22;67.57
61961;BME280;47923;42.506;24.192;2023-06-10T14:51:56;94857.59;;;19.94;70.62
61961;BME280;47923;42.506;24.192;2023-06-10T14:54:21;94953.00;;;20.45;71.59
61961;BME280;47923;42.506;24.192;2023-06-10T14:56:47;94939.66;;;20.30;71.48
61961;BME280;47923;42.506;24.192;2023-06-10T14:59:12;94675.41;;;18.50;72.35
61961;BME280;47923;42.506;24.192;2023-06-10T15:01:38;94952.41;;;20.66;72.22
61961;BME280;47923;42.506;24.192;2023-06-10T15:04:03;94587.00;;;18.24;72.51
61961;BME280;47923;42.506;24.192;2023-06-10T15:06:29;94950.00;;;20.68;71.95
61961;BME280;47923;42.506;24.192;2023-06-10T15:08:54;94954.59;;;20.71;71.88
61961;BME280;47923;42.506;24.192;2023-06-10T15:11:20;94769.91;;;19.49;73.35
61961;BME280;47923;42.506;24.192;2023-06-10T15:13:46;94789.72;;;19.40;73.28